Time;durP1;ratioP1;P1;durP2;ratioP2;P2;SDS_P1;SDS_P2;PMS_P1;PMS_P2;Temp;Humidity;BMP_temperature;BMP_pressure;BME280_temperature;BME280_humidity;BME280_pressure;Samples;Min_cycle;Max_cycle;Signal;HPM_P1;HPM_P2
2022/04/30 00:02:07;;;;;;;10.70;9.73;;;11.20;99.90;;;;;;4936530;29;20433;-72
2022/04/30 00:04:59;;;;;;;10.50;9.40;;;11.20;99.90;;;;;;4936512;29;20537;-72
2022/04/30 00:07:24;;;;;;;9.50;8.60;;;11.20;99.90;;;;;;4916095;29;20476;-72
2022/04/30 00:09:50;;;;;;;10.40;9.30;;;11.20;99.90;;;;;;4917861;29;20521;-72
2022/04/30 00:12:16;;;;;;;10.40;9.50;;;11.10;99.90;;;;;;4917271;29;20338;-72
2022/04/30 00:14:42;;;;;;;10.70;9.27;;;11.10;99.90;;;;;;4917628;29;20179;-72
2022/04/30 00:17:09;;;;;;;11.93;9.63;;;11.10;99.90;;;;;;4934596;29;20520;-72
2022/04/30 00:19:34;;;;;;;10.60;9.60;;;11.10;99.90;;;;;;4936377;29;20763;-71
2022/04/30 00:22:00;;;;;;;12.60;11.30;;;11.20;99.90;;;;;;4936378;29;20504;-72
2022/04/30 00:24:27;;;;;;;15.03;12.70;;;11.30;99.90;;;;;;4934708;29;20188;-72
2022/04/30 00:26:56;;;;;;;15.17;13.57;;;11.30;99.90;;;;;;4934492;29;20805;-72
2022/04/30 00:29:23;;;;;;;13.23;11.87;;;11.40;99.90;;;;;;4954557;28;20941;-72
2022/04/30 00:31:49;;;;;;;18.03;12.30;;;11.40;99.90;;;;;;4940725;28;20837;-73
2022/04/30 00:34:15;;;;;;;14.30;12.23;;;11.40;99.90;;;;;;4935717;29;20423;-72
2022/04/30 00:36:41;;;;;;;15.80;12.30;;;11.40;99.90;;;;;;4935607;29;20483;-72
2022/04/30 00:39:06;;;;;;;16.93;12.20;;;11.50;99.90;;;;;;4934503;29;20813;-72
2022/04/30 00:41:32;;;;;;;13.10;11.80;;;11.50;99.90;;;;;;4935769;29;20644;-72
2022/04/30 00:43:59;;;;;;;14.90;12.80;;;11.50;99.90;;;;;;4935822;29;20177;-72
2022/04/30 00:46:25;;;;;;;13.43;12.20;;;11.50;99.90;;;;;;4935332;29;20185;-71
2022/04/30 00:48:53;;;;;;;12.50;11.20;;;11.50;99.90;;;;;;4935954;29;20448;-72
2022/04/30 00:51:20;;;;;;;13.97;11.87;;;11.50;99.90;;;;;;4934964;29;20436;-72
2022/04/30 00:53:52;;;;;;;15.37;12.30;;;11.50;99.90;;;;;;4934485;29;20431;-72
2022/04/30 00:56:22;;;;;;;12.83;11.60;;;11.50;99.90;;;;;;4929117;29;20558;-72
2022/04/30 00:58:49;;;;;;;15.50;11.50;;;11.50;99.90;;;;;;4935237;29;20437;-72
2022/04/30 02:31:53;;;;;;;29.20;18.17;;;11.50;99.90;;;;;;5466684;23;20491;-72
2022/04/30 02:34:18;;;;;;;28.97;18.50;;;11.40;99.90;;;;;;4964119;28;21002;-72
2022/04/30 02:36:44;;;;;;;28.80;18.83;;;11.40;99.90;;;;;;4967471;28;20482;-72
2022/04/30 02:39:09;;;;;;;30.60;20.00;;;11.40;99.90;;;;;;4968794;28;20249;-73
2022/04/30 02:41:35;;;;;;;25.00;18.50;;;11.40;99.90;;;;;;4949829;28;20205;-72
2022/04/30 02:44:00;;;;;;;24.33;18.50;;;11.40;99.90;;;;;;4949689;28;20181;-72
2022/04/30 02:46:26;;;;;;;29.40;17.20;;;11.40;99.90;;;;;;4951633;29;20180;-72
2022/04/30 02:48:51;;;;;;;26.97;16.60;;;11.40;99.90;;;;;;4970288;28;20198;-74
2022/04/30 02:51:17;;;;;;;29.83;17.93;;;11.40;99.90;;;;;;4972366;28;20202;-71
2022/04/30 02:53:44;;;;;;;28.77;17.87;;;11.30;99.90;;;;;;4953125;28;20666;-72
2022/04/30 02:56:10;;;;;;;25.50;18.50;;;11.30;99.90;;;;;;4953203;28;20291;-72
2022/04/30 03:01:20;;;;;;;22.50;17.67;;;11.30;99.90;;;;;;4972405;28;20485;-74
2022/04/30 03:03:49;;;;;;;26.77;18.80;;;11.20;99.90;;;;;;4969682;28;20909;-72
2022/04/30 03:06:16;;;;;;;26.23;18.40;;;11.30;99.90;;;;;;4952784;28;20196;-73
2022/04/30 03:08:45;;;;;;;32.23;18.17;;;11.20;99.90;;;;;;4951658;28;20444;-72
2022/04/30 03:11:12;;;;;;;32.57;20.73;;;11.20;99.90;;;;;;4952818;28;20442;-71
2022/04/30 03:13:38;;;;;;;28.83;19.13;;;11.20;99.90;;;;;;4952155;28;20459;-72
2022/04/30 03:21:42;;;;;;;37.70;23.73;;;11.20;99.90;;;;;;4938618;29;20431;-73
2022/04/30 03:24:08;;;;;;;33.03;20.00;;;11.20;99.90;;;;;;4952186;28;20999;-72
2022/04/30 03:26:33;;;;;;;31.13;20.80;;;11.10;99.90;;;;;;4974872;28;20487;-72
2022/04/30 03:28:59;;;;;;;31.30;21.97;;;11.10;99.90;;;;;;4976309;28;20485;-72
2022/04/30 03:31:24;;;;;;;40.40;24.07;;;11.10;99.90;;;;;;4970587;28;20225;-71
2022/04/30 03:33:50;;;;;;;35.30;21.87;;;11.10;99.90;;;;;;4959450;28;20202;-72
2022/04/30 03:36:17;;;;;;;35.87;23.30;;;11.10;99.90;;;;;;4969067;28;20554;-72
2022/04/30 03:38:44;;;;;;;42.33;24.00;;;11.10;99.90;;;;;;4972111;28;20441;-72
2022/04/30 03:41:10;;;;;;;41.90;25.30;;;11.10;99.90;;;;;;4970270;28;20465;-72
2022/04/30 03:43:35;;;;;;;37.13;24.13;;;11.10;99.90;;;;;;4958780;28;20502;-72
2022/04/30 03:46:01;;;;;;;38.37;25.10;;;11.10;99.90;;;;;;4956161;28;20446;-73
2022/04/30 03:48:26;;;;;;;40.87;25.93;;;11.00;99.90;;;;;;4970654;28;20716;-72
2022/04/30 03:50:52;;;;;;;45.60;25.37;;;10.90;99.90;;;;;;4975567;28;20274;-72
2022/04/30 03:53:18;;;;;;;44.13;26.90;;;11.00;99.90;;;;;;4956772;28;20188;-72
2022/04/30 03:55:43;;;;;;;35.50;24.33;;;10.90;99.90;;;;;;4970530;28;20976;-74
2022/04/30 03:58:09;;;;;;;36.13;23.53;;;11.00;99.90;;;;;;4960230;28;20691;-72
2022/04/30 04:00:35;;;;;;;40.90;27.00;;;11.00;99.90;;;;;;4956141;28;20190;-69
2022/04/30 04:03:00;;;;;;;47.33;28.70;;;10.90;99.90;;;;;;4958748;28;20567;-72
2022/04/30 04:05:27;;;;;;;47.03;29.90;;;10.90;99.90;;;;;;4975663;28;20178;-72
2022/04/30 04:07:54;;;;;;;43.53;27.80;;;10.80;99.90;;;;;;4969510;28;20181;-72
2022/04/30 04:10:19;;;;;;;44.77;30.30;;;10.80;99.90;;;;;;4967329;28;20449;-71
2022/04/30 04:12:45;;;;;;;38.63;27.83;;;10.80;99.90;;;;;;4965140;28;20506;-72
2022/04/30 04:17:55;;;;;;;43.77;27.67;;;10.80;99.90;;;;;;4975648;28;20183;-72
2022/04/30 04:20:27;;;;;;;46.90;27.50;;;10.70;99.90;;;;;;4964469;28;20950;-72
2022/04/30 04:22:55;;;;;;;44.07;27.50;;;10.70;99.90;;;;;;4955182;28;20421;-72
2022/04/30 04:28:06;;;;;;;47.27;27.57;;;10.70;99.90;;;;;;4966657;28;20497;-71
2022/04/30 04:30:33;;;;;;;41.00;26.00;;;10.70;99.90;;;;;;4947971;28;20477;-72
2022/04/30 04:32:59;;;;;;;43.87;28.63;;;10.70;99.90;;;;;;4970282;28;21026;-72
2022/04/30 04:35:26;;;;;;;42.10;27.73;;;10.70;99.90;;;;;;4969989;28;20557;-72
2022/04/30 04:37:52;;;;;;;55.77;30.50;;;10.70;99.90;;;;;;4968329;28;20436;-72
2022/04/30 04:40:18;;;;;;;45.37;27.60;;;10.70;99.90;;;;;;4967488;28;20508;-72
2022/04/30 04:42:45;;;;;;;45.30;29.80;;;10.60;99.90;;;;;;4969429;28;20216;-71
2022/04/30 04:45:12;;;;;;;54.37;28.80;;;10.60;99.90;;;;;;4970786;28;20937;-72
2022/04/30 04:47:41;;;;;;;55.57;30.03;;;10.60;99.90;;;;;;4968875;28;20442;-72
2022/04/30 04:50:11;;;;;;;46.37;27.80;;;10.60;99.90;;;;;;4955096;28;20424;-72
2022/04/30 04:52:37;;;;;;;39.00;27.07;;;10.60;99.90;;;;;;4959653;28;20472;-71
2022/04/30 04:55:02;;;;;;;41.90;29.20;;;10.60;99.90;;;;;;4963371;28;20978;-72
2022/04/30 04:57:28;;;;;;;48.27;29.57;;;10.50;99.90;;;;;;4966204;28;20186;-72
2022/04/30 04:59:54;;;;;;;48.90;28.73;;;10.60;99.90;;;;;;4968040;28;20186;-73
2022/04/30 05:02:20;;;;;;;47.40;30.13;;;10.60;99.90;;;;;;4968689;28;20216;-72
2022/04/30 05:04:46;;;;;;;52.57;29.73;;;10.60;99.90;;;;;;4971591;28;20210;-71
2022/04/30 05:07:11;;;;;;;44.70;30.27;;;10.60;99.90;;;;;;4967080;28;20480;-73
2022/04/30 05:09:37;;;;;;;45.23;31.00;;;10.50;99.90;;;;;;4958091;28;20190;-72
2022/04/30 05:12:03;;;;;;;44.43;29.00;;;10.60;99.90;;;;;;4966034;28;20296;-72
2022/04/30 05:14:32;;;;;;;49.00;30.97;;;10.60;99.90;;;;;;4963764;28;20257;-72
2022/04/30 05:16:58;;;;;;;45.10;28.30;;;10.60;99.90;;;;;;4974048;28;20457;-72
2022/04/30 05:19:24;;;;;;;47.67;30.10;;;10.60;99.90;;;;;;4967705;28;20441;-72
2022/04/30 05:21:49;;;;;;;54.17;27.67;;;10.60;99.90;;;;;;4973790;28;20589;-72
2022/04/30 05:24:15;;;;;;;51.83;29.23;;;10.60;99.90;;;;;;4961075;28;20188;-73
2022/04/30 05:26:41;;;;;;;52.17;30.43;;;10.50;99.90;;;;;;4973955;28;20187;-72
2022/04/30 05:29:06;;;;;;;45.73;29.97;;;10.60;99.90;;;;;;4960209;28;20195;-73
2022/04/30 05:31:32;;;;;;;47.00;28.80;;;10.60;99.90;;;;;;4973572;28;20454;-73
2022/04/30 05:33:57;;;;;;;50.27;31.13;;;10.60;99.90;;;;;;4963531;28;20228;-73
2022/04/30 05:36:23;;;;;;;42.00;27.53;;;10.60;99.90;;;;;;4972535;28;20210;-73
2022/04/30 05:38:48;;;;;;;47.17;28.90;;;10.60;99.90;;;;;;4953457;28;20191;-72
2022/04/30 05:41:14;;;;;;;40.07;27.03;;;10.60;99.90;;;;;;4969967;28;20199;-72
2022/04/30 05:43:40;;;;;;;45.10;27.73;;;10.60;99.90;;;;;;4973357;28;20209;-71
2022/04/30 05:46:07;;;;;;;48.87;29.30;;;10.70;99.90;;;;;;4966052;28;20189;-72
2022/04/30 05:48:32;;;;;;;41.63;26.47;;;10.70;99.90;;;;;;4961543;28;20182;-71
2022/04/30 05:50:58;;;;;;;43.00;27.67;;;10.70;99.90;;;;;;4960342;28;20472;-72
2022/04/30 05:53:23;;;;;;;45.93;29.53;;;10.80;99.90;;;;;;4968590;28;20216;-72
2022/04/30 05:55:49;;;;;;;42.33;28.40;;;10.80;99.90;;;;;;4972753;28;20223;-72
2022/04/30 05:58:14;;;;;;;45.43;29.10;;;10.80;99.90;;;;;;4963361;28;20809;-72
2022/04/30 06:00:40;;;;;;;48.30;30.37;;;10.80;99.90;;;;;;4952972;28;20222;-71
2022/04/30 06:03:06;;;;;;;42.77;26.83;;;10.80;99.90;;;;;;4969621;28;20589;-72
2022/04/30 06:05:31;;;;;;;41.77;27.83;;;10.80;99.90;;;;;;4972995;28;20183;-71
2022/04/30 06:07:57;;;;;;;41.73;26.53;;;10.80;99.90;;;;;;4959216;28;20343;-72
2022/04/30 06:10:23;;;;;;;45.67;27.93;;;10.80;99.90;;;;;;4941591;28;20678;-72
2022/04/30 06:12:49;;;;;;;40.83;26.47;;;10.80;99.90;;;;;;4953098;28;20692;-72
2022/04/30 06:15:14;;;;;;;40.93;25.77;;;10.80;99.90;;;;;;4972843;28;20464;-72
2022/04/30 06:17:40;;;;;;;44.47;27.63;;;10.80;99.90;;;;;;4965908;28;20195;-72
2022/04/30 06:20:06;;;;;;;42.63;27.43;;;10.80;99.90;;;;;;4963808;28;20686;-72
2022/04/30 06:22:34;;;;;;;44.23;28.00;;;10.90;99.90;;;;;;4969416;28;20212;-72
2022/04/30 06:24:59;;;;;;;37.97;26.90;;;10.90;99.90;;;;;;4964295;28;20422;-72
2022/04/30 06:27:25;;;;;;;41.33;28.20;;;10.90;99.90;;;;;;4970938;28;20945;-71
2022/04/30 06:29:51;;;;;;;41.87;26.30;;;10.90;99.90;;;;;;4961272;28;20278;-72
2022/04/30 06:32:16;;;;;;;39.53;27.13;;;11.00;99.90;;;;;;4972093;28;20217;-72
2022/04/30 06:34:42;;;;;;;36.87;26.23;;;11.10;99.90;;;;;;4957179;28;20501;-72
2022/04/30 06:37:08;;;;;;;39.80;26.17;;;11.20;99.90;;;;;;4934328;29;20607;-72
2022/04/30 06:39:33;;;;;;;37.93;26.57;;;11.30;99.90;;;;;;4954239;28;20180;-72
2022/04/30 06:41:59;;;;;;;38.60;24.77;;;11.40;99.90;;;;;;4972539;28;20194;-72
2022/04/30 06:44:24;;;;;;;36.17;25.60;;;11.40;99.90;;;;;;4970178;28;20649;-71
2022/04/30 06:46:50;;;;;;;44.00;26.37;;;11.50;99.90;;;;;;4957898;28;20200;-72
2022/04/30 06:49:15;;;;;;;34.43;24.53;;;11.50;99.90;;;;;;4947302;28;20243;-71
2022/04/30 06:51:41;;;;;;;39.77;26.13;;;11.60;99.90;;;;;;4951197;28;20216;-71
2022/04/30 06:57:11;;;;;;;33.77;23.03;;;11.60;99.90;;;;;;4953111;28;20735;-71
2022/04/30 06:59:39;;;;;;;30.53;23.00;;;11.60;99.90;;;;;;4949947;28;20445;-71
2022/04/30 07:02:12;;;;;;;38.77;24.57;;;11.60;99.90;;;;;;4953925;28;20633;-71
2022/04/30 07:04:39;;;;;;;36.13;23.40;;;11.50;99.90;;;;;;4963743;28;20439;-71
2022/04/30 07:07:05;;;;;;;38.10;24.07;;;11.50;99.90;;;;;;4949869;28;20451;-72
2022/04/30 07:09:33;;;;;;;39.93;24.70;;;11.40;99.90;;;;;;4957262;28;20435;-71
2022/04/30 07:12:06;;;;;;;38.53;24.77;;;11.40;99.90;;;;;;4948855;28;20456;-72
2022/04/30 07:14:35;;;;;;;39.97;23.73;;;11.50;99.90;;;;;;4956194;28;20969;-72
2022/04/30 07:17:05;;;;;;;35.80;24.17;;;11.50;99.90;;;;;;4944801;28;20478;-71
2022/04/30 07:19:30;;;;;;;35.00;22.20;;;11.50;99.90;;;;;;4951409;28;20454;-70
2022/04/30 07:21:56;;;;;;;41.40;23.70;;;11.60;99.90;;;;;;4959156;28;20461;-71
2022/04/30 07:24:21;;;;;;;34.80;22.50;;;11.70;99.90;;;;;;4944630;28;20607;-70
2022/04/30 07:26:47;;;;;;;28.73;22.40;;;11.70;99.90;;;;;;4965031;28;20203;-69
2022/04/30 07:29:12;;;;;;;32.30;21.60;;;11.70;99.90;;;;;;4949535;28;20189;-70
2022/04/30 07:31:38;;;;;;;34.27;21.57;;;11.70;99.90;;;;;;4939169;28;20300;-71
2022/04/30 07:34:04;;;;;;;31.53;23.07;;;11.70;99.90;;;;;;4944902;28;20271;-70
2022/04/30 07:36:31;;;;;;;29.33;20.40;;;11.80;99.90;;;;;;4951870;28;20216;-70
2022/04/30 07:38:57;;;;;;;32.37;21.70;;;11.80;99.90;;;;;;4964954;28;20698;-70
2022/04/30 07:41:23;;;;;;;35.03;24.10;;;11.80;99.90;;;;;;4951665;28;20462;-70
2022/04/30 07:43:49;;;;;;;28.33;20.60;;;11.90;99.90;;;;;;4958634;28;21295;-71
2022/04/30 07:46:14;;;;;;;29.93;22.40;;;11.80;99.90;;;;;;4966936;28;20192;-71
2022/04/30 07:48:40;;;;;;;27.20;21.90;;;11.90;99.90;;;;;;4954349;28;20568;-71
2022/04/30 07:51:13;;;;;;;28.97;21.37;;;11.80;99.90;;;;;;4955102;28;20251;-69
2022/04/30 07:53:39;;;;;;;27.13;20.90;;;11.80;99.90;;;;;;4948512;28;20188;-70
2022/04/30 07:56:05;;;;;;;27.10;20.00;;;11.70;99.90;;;;;;4969008;28;20842;-71
2022/04/30 07:58:31;;;;;;;26.10;19.27;;;11.70;99.90;;;;;;4954368;28;20448;-71
2022/04/30 08:00:56;;;;;;;29.13;21.10;;;11.70;99.90;;;;;;4948229;28;20220;-70
2022/04/30 08:03:22;;;;;;;32.90;21.63;;;11.60;99.90;;;;;;4952638;28;20184;-70
2022/04/30 08:05:47;;;;;;;33.63;21.50;;;11.70;99.90;;;;;;4963705;28;20202;-71
2022/04/30 08:08:13;;;;;;;31.57;22.53;;;11.60;99.90;;;;;;4953370;28;20214;-70
2022/04/30 08:10:38;;;;;;;32.47;22.13;;;11.70;99.90;;;;;;4954630;28;20786;-70
2022/04/30 08:13:06;;;;;;;31.30;21.77;;;11.60;99.90;;;;;;4953048;28;20288;-70
2022/04/30 08:15:31;;;;;;;35.63;22.97;;;11.60;99.90;;;;;;4950685;28;20227;-71
2022/04/30 08:17:57;;;;;;;30.70;20.73;;;11.60;99.90;;;;;;4969441;28;20423;-71
2022/04/30 08:20:22;;;;;;;28.67;19.90;;;11.70;99.90;;;;;;4972360;28;20227;-71
2022/04/30 08:22:48;;;;;;;27.40;21.67;;;11.60;99.90;;;;;;4951493;28;20215;-71
2022/04/30 08:25:13;;;;;;;28.53;21.63;;;11.50;99.90;;;;;;4959887;28;20202;-71
2022/04/30 08:27:40;;;;;;;26.00;20.60;;;11.40;99.90;;;;;;4966471;28;20237;-71
2022/04/30 08:30:07;;;;;;;28.63;21.13;;;11.50;99.90;;;;;;4953758;28;20212;-71
2022/04/30 08:32:32;;;;;;;26.33;19.13;;;11.50;99.90;;;;;;4950729;28;20494;-71
2022/04/30 08:35:00;;;;;;;30.17;21.40;;;11.50;99.90;;;;;;4957156;28;20463;-71
2022/04/30 08:37:26;;;;;;;29.30;22.53;;;11.50;99.90;;;;;;4952035;28;20219;-70
2022/04/30 08:39:52;;;;;;;33.27;21.40;;;11.40;99.90;;;;;;4958792;28;20476;-71
2022/04/30 08:42:20;;;;;;;27.67;21.53;;;11.40;99.90;;;;;;4960547;28;20452;-71
2022/04/30 08:44:45;;;;;;;29.30;19.30;;;11.40;99.90;;;;;;4952081;28;20635;-70
2022/04/30 08:47:11;;;;;;;24.70;20.60;;;11.40;99.90;;;;;;4940438;28;20889;-71
2022/04/30 08:49:41;;;;;;;25.77;19.83;;;11.30;99.90;;;;;;4951037;28;20317;-69
2022/04/30 08:52:07;;;;;;;28.93;18.97;;;11.30;99.90;;;;;;4947648;28;20709;-70
2022/04/30 08:54:33;;;;;;;22.40;18.07;;;11.20;99.90;;;;;;4950189;28;20833;-70
2022/04/30 08:56:58;;;;;;;25.77;19.20;;;11.30;99.90;;;;;;4957172;28;20479;-71
2022/04/30 08:59:24;;;;;;;24.00;18.77;;;11.30;99.90;;;;;;4956574;28;20180;-70
2022/04/30 09:01:52;;;;;;;26.30;19.33;;;11.30;99.90;;;;;;4962013;28;20212;-70
2022/04/30 09:04:18;;;;;;;25.10;19.07;;;11.20;99.90;;;;;;4956477;28;20202;-70
2022/04/30 09:06:49;;;;;;;26.83;21.67;;;11.10;99.90;;;;;;4956297;28;20419;-70
2022/04/30 09:09:29;;;;;;;30.33;20.47;;;11.10;99.90;;;;;;4959107;28;20199;-70
2022/04/30 09:12:06;;;;;;;31.80;22.73;;;11.00;99.90;;;;;;4955499;28;20422;-69
2022/04/30 09:14:31;;;;;;;25.60;20.70;;;11.00;99.90;;;;;;4956290;28;20214;-70
2022/04/30 09:17:08;;;;;;;29.50;20.87;;;11.10;99.90;;;;;;4947697;28;20481;-70
2022/04/30 09:20:04;;;;;;;28.90;19.00;;;11.10;99.90;;;;;;4949793;28;20182;-70
2022/04/30 09:22:34;;;;;;;22.10;17.07;;;11.10;99.90;;;;;;4949295;28;20443;-69
2022/04/30 09:25:11;;;;;;;22.73;16.60;;;11.10;99.90;;;;;;4951522;28;20523;-70
2022/04/30 09:27:44;;;;;;;24.93;18.93;;;11.00;99.90;;;;;;4952405;28;20435;-71
2022/04/30 09:30:29;;;;;;;29.53;19.73;;;11.00;99.90;;;;;;4967079;28;20436;-71
2022/04/30 09:33:12;;;;;;;22.30;16.60;;;11.10;99.90;;;;;;4956754;28;20467;-70
2022/04/30 09:38:25;;;;;;;26.27;17.37;;;11.10;99.90;;;;;;4952000;28;20793;-69
2022/04/30 09:40:57;;;;;;;25.67;16.30;;;11.10;99.90;;;;;;4951022;28;20424;-70
2022/04/30 09:43:33;;;;;;;23.83;17.50;;;11.00;99.90;;;;;;4931293;29;20444;-70
2022/04/30 09:46:01;;;;;;;24.40;16.50;;;11.10;99.90;;;;;;4949209;28;20429;-70
2022/04/30 09:53:57;;;;;;;21.23;15.60;;;11.00;99.90;;;;;;4955312;28;20490;-70
2022/04/30 09:56:45;;;;;;;20.53;15.90;;;11.10;99.90;;;;;;4972044;28;20470;-70
2022/04/30 09:59:13;;;;;;;21.37;16.17;;;11.20;99.90;;;;;;4939074;28;20184;-70
2022/04/30 10:01:41;;;;;;;17.53;14.17;;;11.30;99.90;;;;;;4945997;28;20444;-71
2022/04/30 10:04:15;;;;;;;17.60;14.37;;;11.40;99.90;;;;;;4951105;28;20432;-69
2022/04/30 10:06:45;;;;;;;16.97;13.93;;;11.60;99.90;;;;;;4970109;28;20478;-70
2022/04/30 10:09:14;;;;;;;14.00;11.53;;;11.70;99.90;;;;;;4971489;28;20491;-70
2022/04/30 10:11:43;;;;;;;13.30;10.93;;;11.80;99.90;;;;;;4968941;28;20435;-71
2022/04/30 10:14:15;;;;;;;14.67;11.60;;;11.90;99.90;;;;;;4955841;28;20463;-70
2022/04/30 10:16:42;;;;;;;13.93;12.43;;;12.00;99.90;;;;;;4949928;28;20468;-70
2022/04/30 10:19:11;;;;;;;14.87;12.60;;;12.10;99.90;;;;;;4941868;28;20440;-70
2022/04/30 10:21:38;;;;;;;14.90;13.20;;;12.30;99.90;;;;;;4951001;28;20451;-71
2022/04/30 10:24:05;;;;;;;14.83;13.33;;;12.50;99.90;;;;;;4962067;28;20522;-70
2022/04/30 10:26:31;;;;;;;13.23;11.93;;;12.70;99.90;;;;;;4969703;28;20506;-70
2022/04/30 10:29:11;;;;;;;12.77;11.53;;;12.90;99.90;;;;;;4961674;28;20737;-70
2022/04/30 10:31:44;;;;;;;13.33;11.30;;;13.10;99.90;;;;;;4949889;28;20811;-70
2022/04/30 10:34:10;;;;;;;13.13;10.90;;;13.00;99.90;;;;;;4950723;28;20980;-70
2022/04/30 10:36:38;;;;;;;12.90;10.00;;;12.80;99.90;;;;;;4948039;28;20490;-70
2022/04/30 10:39:06;;;;;;;10.90;9.70;;;12.80;99.90;;;;;;4948487;28;20451;-70
2022/04/30 10:41:45;;;;;;;11.90;10.33;;;12.70;99.90;;;;;;4949721;28;20822;-71
2022/04/30 10:44:13;;;;;;;11.17;10.07;;;12.80;99.90;;;;;;4954527;28;20429;-70
2022/04/30 10:46:45;;;;;;;11.00;8.90;;;12.80;99.90;;;;;;4950293;28;20576;-70
2022/04/30 10:49:11;;;;;;;7.20;6.60;;;12.80;99.90;;;;;;4949875;28;20441;-70
2022/04/30 10:51:42;;;;;;;6.27;5.77;;;12.80;99.90;;;;;;4950093;28;20447;-71
2022/04/30 10:54:13;;;;;;;6.37;5.87;;;12.70;99.90;;;;;;4947616;28;20459;-70
2022/04/30 10:56:39;;;;;;;5.60;5.20;;;12.60;99.90;;;;;;4930054;28;20843;-69
2022/04/30 10:59:06;;;;;;;6.47;5.77;;;12.50;99.90;;;;;;4949784;28;20527;-70
2022/04/30 11:01:32;;;;;;;7.53;5.67;;;12.30;99.90;;;;;;4950016;28;20838;-70
2022/04/30 11:03:57;;;;;;;5.73;5.23;;;12.10;99.90;;;;;;4950350;28;20472;-70
2022/04/30 11:06:25;;;;;;;4.87;4.40;;;12.00;99.90;;;;;;4949863;29;20933;-70
2022/04/30 11:09:05;;;;;;;5.07;4.67;;;11.90;99.90;;;;;;4950262;28;20276;-70
2022/04/30 11:11:32;;;;;;;5.50;5.10;;;11.70;99.90;;;;;;4949298;28;20498;-70
2022/04/30 11:14:04;;;;;;;6.10;5.60;;;11.70;99.90;;;;;;4955646;28;20468;-70
2022/04/30 11:16:33;;;;;;;5.40;4.90;;;11.90;99.90;;;;;;4949424;28;21158;-70
2022/04/30 11:19:00;;;;;;;5.87;5.37;;;11.90;99.90;;;;;;4949555;29;20467;-70
2022/04/30 11:21:31;;;;;;;5.23;4.73;;;12.10;99.90;;;;;;4950122;28;20471;-70
2022/04/30 11:23:56;;;;;;;5.93;5.37;;;12.20;99.90;;;;;;4950252;28;20424;-70
2022/04/30 11:26:22;;;;;;;6.17;5.73;;;12.30;99.90;;;;;;4962606;28;20435;-70
2022/04/30 11:28:48;;;;;;;6.50;6.00;;;12.40;99.90;;;;;;4949879;28;20192;-70
2022/04/30 11:31:18;;;;;;;6.13;5.63;;;12.50;99.90;;;;;;4948130;28;20232;-70
2022/04/30 11:33:44;;;;;;;6.90;6.00;;;12.70;99.90;;;;;;4950625;28;20416;-70
2022/04/30 11:36:09;;;;;;;6.07;5.57;;;12.90;99.90;;;;;;4953444;28;20798;-70
2022/04/30 11:38:36;;;;;;;6.63;6.07;;;13.10;99.90;;;;;;4954149;28;20583;-71
2022/04/30 11:41:05;;;;;;;8.10;5.87;;;13.20;99.90;;;;;;4954912;28;20208;-70
2022/04/30 11:43:31;;;;;;;6.33;5.70;;;13.40;99.90;;;;;;4954117;28;20917;-70
2022/04/30 11:46:01;;;;;;;5.83;5.43;;;13.60;99.90;;;;;;4949989;28;20430;-71
2022/04/30 11:48:31;;;;;;;7.00;6.03;;;13.80;99.90;;;;;;4953480;28;20701;-70
2022/04/30 11:50:57;;;;;;;5.30;4.80;;;13.90;99.90;;;;;;4953517;28;20551;-71
2022/04/30 11:53:23;;;;;;;5.90;5.40;;;13.90;99.90;;;;;;4953350;28;20511;-72
2022/04/30 11:55:49;;;;;;;6.10;5.67;;;13.90;99.90;;;;;;4953267;28;20196;-71
2022/04/30 11:58:14;;;;;;;6.67;6.10;;;14.00;99.90;;;;;;4952999;28;20427;-70
2022/04/30 12:00:40;;;;;;;6.80;6.10;;;14.00;99.90;;;;;;4951270;28;20209;-70
2022/04/30 12:03:06;;;;;;;7.43;6.83;;;14.00;99.90;;;;;;4954730;28;20197;-71
2022/04/30 12:05:32;;;;;;;6.60;6.10;;;13.90;99.90;;;;;;4951797;28;20741;-70
2022/04/30 12:08:01;;;;;;;6.40;5.80;;;13.80;99.90;;;;;;4967720;28;20712;-70
2022/04/30 12:10:27;;;;;;;6.63;5.40;;;13.60;99.90;;;;;;4951418;28;20649;-69
2022/04/30 12:12:54;;;;;;;6.17;5.67;;;13.50;99.90;;;;;;4950574;28;20456;-70
2022/04/30 12:15:21;;;;;;;6.80;6.20;;;13.20;99.90;;;;;;4952940;28;20201;-70
2022/04/30 12:24:40;;;;;;;7.00;6.30;;;13.20;99.90;;;;;;4955078;28;20527;-70
2022/04/30 12:26:07;;;;;;;5.93;5.50;;;13.70;99.90;;;;;;4953569;28;20487;-70
2022/04/30 12:28:47;;;;;;;8.63;6.00;;;13.70;99.90;;;;;;4951954;28;20874;-70
2022/04/30 12:31:13;;;;;;;7.23;6.63;;;13.60;99.90;;;;;;4952385;29;20459;-70
2022/04/30 12:33:50;;;;;;;7.20;6.50;;;13.50;99.90;;;;;;4950615;28;20438;-69
2022/04/30 12:36:17;;;;;;;6.53;6.03;;;13.30;99.90;;;;;;4952091;28;20475;-69
2022/04/30 12:38:53;;;;;;;7.20;6.60;;;13.30;99.90;;;;;;4951621;28;20432;-70
2022/04/30 12:41:19;;;;;;;7.13;6.50;;;13.20;99.90;;;;;;4958250;28;20450;-69
2022/04/30 12:43:44;;;;;;;7.57;7.00;;;13.10;99.90;;;;;;4967483;28;20424;-70
2022/04/30 12:46:19;;;;;;;7.77;6.97;;;13.10;99.90;;;;;;4958971;28;20199;-69
2022/04/30 12:48:44;;;;;;;6.60;6.00;;;13.00;99.90;;;;;;4965246;28;20194;-70
2022/04/30 12:51:10;;;;;;;7.03;6.43;;;13.00;99.90;;;;;;4951346;28;20440;-70
2022/04/30 12:53:36;;;;;;;7.00;6.10;;;12.90;99.90;;;;;;4952640;28;20176;-70
2022/04/30 12:56:01;;;;;;;7.57;6.87;;;12.60;99.90;;;;;;4942099;28;20467;-70
2022/04/30 12:58:27;;;;;;;7.53;6.80;;;12.50;99.90;;;;;;4957019;28;20191;-70
2022/04/30 13:00:54;;;;;;;7.27;6.57;;;12.50;99.90;;;;;;4950818;28;20204;-69
2022/04/30 13:03:20;;;;;;;11.60;8.10;;;12.50;99.90;;;;;;4949739;28;20549;-70
2022/04/30 13:05:46;;;;;;;11.80;8.43;;;12.50;99.90;;;;;;4969378;28;20415;-69
2022/04/30 13:08:11;;;;;;;11.27;8.73;;;12.30;99.90;;;;;;4951545;28;20199;-70
2022/04/30 13:13:34;;;;;;;11.90;10.60;;;12.30;99.90;;;;;;4951247;28;20687;-70
2022/04/30 13:16:09;;;;;;;11.10;10.03;;;12.30;99.90;;;;;;4950994;28;20611;-70
2022/04/30 13:18:35;;;;;;;14.87;12.37;;;12.10;99.90;;;;;;4951922;28;20423;-70
2022/04/30 13:21:03;;;;;;;18.60;14.40;;;12.20;99.90;;;;;;4950689;28;20456;-70
2022/04/30 13:23:28;;;;;;;15.80;13.80;;;11.90;99.90;;;;;;4958361;28;20428;-69
2022/04/30 13:25:54;;;;;;;19.30;15.77;;;11.90;99.90;;;;;;4965540;28;20433;-70
2022/04/30 13:28:20;;;;;;;16.87;15.07;;;12.00;99.90;;;;;;4956583;28;20202;-71
2022/04/30 13:30:45;;;;;;;16.67;13.80;;;12.10;99.90;;;;;;4963867;28;20201;-70
2022/04/30 13:33:11;;;;;;;14.67;12.53;;;12.20;99.90;;;;;;4970578;28;20461;-71
2022/04/30 13:35:36;;;;;;;17.40;14.80;;;12.40;99.90;;;;;;4964070;28;20630;-70
2022/04/30 13:38:02;;;;;;;15.37;13.13;;;12.60;99.90;;;;;;4951418;28;20223;-70
2022/04/30 13:40:27;;;;;;;15.53;13.07;;;12.70;99.90;;;;;;4951431;28;20254;-69
2022/04/30 13:42:53;;;;;;;16.70;14.20;;;12.80;99.90;;;;;;4950953;28;20431;-70
2022/04/30 13:45:20;;;;;;;19.63;15.90;;;12.80;99.90;;;;;;4948978;28;20446;-69
2022/04/30 13:47:46;;;;;;;16.27;14.03;;;12.90;99.90;;;;;;4950399;28;20180;-70
2022/04/30 13:50:12;;;;;;;17.27;14.00;;;12.90;99.90;;;;;;4969855;28;20416;-70
2022/04/30 13:52:38;;;;;;;18.07;14.67;;;13.10;99.90;;;;;;4967656;28;20831;-70
2022/04/30 13:55:07;;;;;;;17.50;14.30;;;13.10;99.90;;;;;;4964936;28;20180;-70
2022/04/30 13:57:33;;;;;;;22.53;15.70;;;13.10;99.90;;;;;;4959279;28;20484;-70
2022/04/30 13:59:58;;;;;;;17.90;14.70;;;13.10;99.90;;;;;;4952685;28;20950;-70
2022/04/30 14:02:27;;;;;;;19.57;12.60;;;12.90;99.90;;;;;;4967462;28;20431;-70
2022/04/30 14:04:52;;;;;;;16.73;14.33;;;13.00;99.90;;;;;;4970141;28;20183;-69
2022/04/30 14:07:18;;;;;;;16.70;13.93;;;13.10;99.90;;;;;;4969724;28;20427;-71
2022/04/30 14:09:44;;;;;;;17.37;13.23;;;13.20;99.90;;;;;;4957823;28;20196;-71
2022/04/30 14:12:10;;;;;;;16.30;13.67;;;13.20;99.90;;;;;;4950700;28;20287;-70
2022/04/30 14:15:09;;;;;;;18.63;13.80;;;13.40;99.90;;;;;;4965572;28;20546;-71
2022/04/30 14:20:15;;;;;;;16.43;11.73;;;13.70;99.90;;;;;;4959108;28;20641;-70
2022/04/30 14:22:41;;;;;;;16.05;14.23;;;13.70;99.90;;;;;;4949162;28;20541;-70
2022/04/30 14:25:09;;;;;;;13.47;12.07;;;13.60;99.90;;;;;;4944362;28;20445;-70
2022/04/30 14:27:36;;;;;;;13.90;11.50;;;13.40;99.90;;;;;;4937584;28;20455;-70
2022/04/30 14:30:04;;;;;;;11.00;9.90;;;13.30;99.90;;;;;;4939187;28;21002;-71
2022/04/30 14:32:29;;;;;;;12.67;11.13;;;13.40;99.90;;;;;;4930427;29;20465;-70
2022/04/30 14:34:55;;;;;;;15.13;10.37;;;13.50;99.90;;;;;;4949813;28;20454;-70
2022/04/30 14:37:20;;;;;;;10.93;9.80;;;13.40;99.90;;;;;;4968872;28;20693;-70
2022/04/30 14:39:46;;;;;;;12.20;10.90;;;13.50;99.90;;;;;;4969111;28;20188;-71